Accueil
METAR-TAF:

METAR-TAF

Aéroports :

Granges, Suisse

Aérodrome de Granges

latitude: 47-10-53N, longitude: 007-24-59E, altitude: 430 m

Observation

Le bulletin a été fait il y a 31 minutes, à 09:50 UTC
Vent 16 kt de est/nord-est
Température -1°C
Humidité 80%
Pression 1012 hPa
Visibilité: 7000 m
Ciel couvert à une hauteur de 1800 ft

METAR: LSZG 240950Z 06016KT 7000 OVC018 M01/M04 Q1012 NOSIG

Heure: 11:21 (10:21 UTC)

Prévision

Le bulletin a été fait il y a 1 heure et 56 minutes, à 08:25 UTC
Prévision valable du 24 à 09 UTC au 24 à 18 UTC
Vent 12 kt de est/nord-est
Visibilité: 8000 m
Ciel couvert à une hauteur de 1800 ft
Probabilité 40% :
Temporairement
du 24 à 09 UTC au 24 à 18 UTC
Vent 15 kt de est/nord-est avec des rafales jusqu'à 25 kt

TAF: LSZG 240825Z 2409/2418 06012KT 8000 OVC018 PROB40 TEMPO 2409/2418 06015G25KT

Observations et prévisions météorologiques de plus de 4000 aéroports (messages METAR et TAF).

Les stations disponibles sont représentées par des disques jaunes et rouges sur la carte.

Passer la souris dessus pour voir le nom de la station.

Cliquer dessus pour voir les observations et prévisions météorologiques.

Pour changer de carte: cliquez sur les boutons verts avec une croix noire pour zoomer, sur le bouton vert avec un tiret pour effectuer un zoom arrière, ou sur les flèches vertes pour les cartes adjacentes.


METAR-TAF: